Time;durP1;ratioP1;P1;durP2;ratioP2;P2;SDS_P1;SDS_P2;PMS_P1;PMS_P2;Temp;Humidity;BMP_temperature;BMP_pressure;BME280_temperature;BME280_humidity;BME280_pressure;Samples;Min_cycle;Max_cycle;Signal;HPM_P1;HPM_P2
2023/12/19 00:00:33;;;;;;;13.97;10.70;;;5.80;99.90;;;;;;5065098;28;21045;-80
2023/12/19 00:03:01;;;;;;;16.40;10.80;;;5.80;99.90;;;;;;5069254;28;20514;-81
2023/12/19 00:05:28;;;;;;;12.47;10.50;;;5.80;99.90;;;;;;5068552;28;20463;-79
2023/12/19 00:07:54;;;;;;;11.60;9.70;;;5.80;99.90;;;;;;5064154;28;20541;-80
2023/12/19 00:10:21;;;;;;;14.97;11.60;;;5.90;99.90;;;;;;5066659;28;20495;-80
2023/12/19 00:12:48;;;;;;;14.40;11.23;;;5.80;99.90;;;;;;5069039;28;20511;-80
2023/12/19 00:15:15;;;;;;;14.00;10.43;;;5.70;99.90;;;;;;5069712;28;20480;-81
2023/12/19 00:17:43;;;;;;;13.90;10.70;;;5.60;99.90;;;;;;5069628;28;20472;-80
2023/12/19 00:20:12;;;;;;;13.10;10.10;;;5.60;99.90;;;;;;5068020;28;20494;-80
2023/12/19 00:22:38;;;;;;;17.10;10.20;;;5.60;99.90;;;;;;5069911;28;20497;-81
2023/12/19 00:25:06;;;;;;;16.83;11.30;;;5.70;99.90;;;;;;5068791;28;20490;-80
2023/12/19 00:27:33;;;;;;;13.20;10.00;;;5.50;99.90;;;;;;5068878;28;20489;-80
2023/12/19 00:30:00;;;;;;;12.80;8.90;;;5.60;99.90;;;;;;5067497;28;20481;-79
2023/12/19 00:32:27;;;;;;;12.17;10.03;;;5.60;99.90;;;;;;5068243;28;20511;-79
2023/12/19 00:34:54;;;;;;;14.13;11.00;;;5.60;99.90;;;;;;5069415;28;20532;-78
2023/12/19 00:37:22;;;;;;;13.03;10.60;;;5.70;99.90;;;;;;5069420;28;20507;-78
2023/12/19 00:39:49;;;;;;;12.13;9.53;;;5.60;99.90;;;;;;5066854;28;20557;-81
2023/12/19 00:42:16;;;;;;;16.20;10.83;;;5.60;99.90;;;;;;5069348;28;20521;-79
2023/12/19 00:44:43;;;;;;;12.93;10.60;;;5.60;99.90;;;;;;5069199;28;20561;-79
2023/12/19 00:47:10;;;;;;;12.67;10.40;;;5.60;99.90;;;;;;5068768;28;20469;-81
2023/12/19 00:49:37;;;;;;;16.97;11.20;;;5.60;99.90;;;;;;5070227;28;20459;-81
2023/12/19 00:52:04;;;;;;;13.60;10.13;;;5.60;99.90;;;;;;5070783;28;20502;-82
2023/12/19 00:54:32;;;;;;;17.37;11.00;;;5.50;99.90;;;;;;5071459;28;20487;-81
2023/12/19 00:56:59;;;;;;;12.37;9.83;;;5.50;99.90;;;;;;5070234;28;20509;-80
2023/12/19 00:59:25;;;;;;;11.00;9.37;;;5.50;99.90;;;;;;5071290;28;20597;-82
2023/12/19 01:01:52;;;;;;;12.67;9.43;;;5.50;99.90;;;;;;5072345;28;20490;-81
2023/12/19 01:04:19;;;;;;;14.70;11.90;;;5.50;99.90;;;;;;5070908;28;20487;-81
2023/12/19 01:06:46;;;;;;;15.83;11.90;;;5.50;99.90;;;;;;5071016;28;20538;-81
2023/12/19 01:09:13;;;;;;;12.83;9.33;;;5.50;99.90;;;;;;5068830;28;20514;-82
2023/12/19 01:11:42;;;;;;;15.67;11.30;;;5.60;99.90;;;;;;5070271;28;20462;-81
2023/12/19 01:14:08;;;;;;;13.53;10.03;;;5.50;99.90;;;;;;5071235;28;20471;-81
2023/12/19 01:16:35;;;;;;;15.97;10.17;;;5.60;99.90;;;;;;5070013;28;20510;-81
2023/12/19 01:19:03;;;;;;;15.87;9.40;;;5.50;99.90;;;;;;5070636;28;20478;-82
2023/12/19 01:21:30;;;;;;;13.80;10.73;;;5.50;99.90;;;;;;5070486;28;20487;-81
2023/12/19 01:23:56;;;;;;;13.40;9.23;;;5.50;99.90;;;;;;5070382;28;20591;-81
2023/12/19 01:26:23;;;;;;;14.30;11.20;;;5.40;99.90;;;;;;5070307;28;20571;-82
2023/12/19 01:28:51;;;;;;;19.50;11.53;;;5.50;99.90;;;;;;5070359;28;20481;-82
2023/12/19 01:31:18;;;;;;;14.00;10.23;;;5.50;99.90;;;;;;5068094;28;20543;-82
2023/12/19 01:33:45;;;;;;;13.47;10.30;;;5.50;99.90;;;;;;5069101;28;20479;-80
2023/12/19 01:36:12;;;;;;;17.47;12.10;;;5.40;99.90;;;;;;5066354;28;20460;-82
2023/12/19 01:38:39;;;;;;;12.80;10.47;;;5.50;99.90;;;;;;5065897;28;20526;-82
2023/12/19 01:41:05;;;;;;;20.87;10.07;;;5.40;99.90;;;;;;5066681;28;21022;-81
2023/12/19 01:43:32;;;;;;;13.40;9.83;;;5.40;99.90;;;;;;5066275;28;20463;-82
2023/12/19 01:46:00;;;;;;;15.03;9.27;;;5.40;99.90;;;;;;5064677;28;20546;-82
2023/12/19 01:48:28;;;;;;;13.40;8.87;;;5.50;99.90;;;;;;5065542;28;20515;-82
2023/12/19 01:50:55;;;;;;;14.23;9.33;;;5.40;99.90;;;;;;5066463;28;20546;-81
2023/12/19 01:53:23;;;;;;;9.93;8.43;;;5.50;99.90;;;;;;5066467;28;21240;-81
2023/12/19 01:55:53;;;;;;;11.03;8.10;;;5.50;99.90;;;;;;5067827;28;20875;-81
2023/12/19 01:58:21;;;;;;;11.60;8.80;;;5.50;99.90;;;;;;5068201;28;20459;-82
2023/12/19 02:00:56;;;;;;;10.97;7.97;;;5.50;99.90;;;;;;5064969;28;20498;-82
2023/12/19 02:03:25;;;;;;;11.57;8.70;;;5.60;99.90;;;;;;5064261;28;20449;-82
2023/12/19 02:05:54;;;;;;;10.50;7.57;;;5.50;99.90;;;;;;5065767;28;20521;-82
2023/12/19 02:08:21;;;;;;;9.87;7.97;;;5.60;99.90;;;;;;5065861;28;20466;-81
2023/12/19 02:10:48;;;;;;;8.20;7.30;;;5.60;99.90;;;;;;5065831;28;20475;-82
2023/12/19 02:13:15;;;;;;;10.63;8.33;;;5.70;99.90;;;;;;5067282;28;20558;-80
2023/12/19 02:15:43;;;;;;;9.10;7.60;;;5.70;99.90;;;;;;5067540;28;20443;-81
2023/12/19 02:18:17;;;;;;;9.67;7.37;;;5.60;99.90;;;;;;5065091;28;20546;-80
2023/12/19 02:20:46;;;;;;;11.90;9.10;;;5.60;99.90;;;;;;5065220;28;20514;-81
2023/12/19 02:23:14;;;;;;;11.33;7.93;;;5.70;99.90;;;;;;5069705;28;20498;-81
2023/12/19 02:25:41;;;;;;;12.27;8.93;;;5.70;99.90;;;;;;5066192;28;20537;-80
2023/12/19 02:28:09;;;;;;;12.50;9.17;;;5.60;99.90;;;;;;5071024;28;20529;-81
2023/12/19 02:30:36;;;;;;;12.90;10.03;;;5.70;99.90;;;;;;5071303;28;20506;-82
2023/12/19 02:33:03;;;;;;;11.60;9.07;;;5.70;99.90;;;;;;5073543;28;20446;-82
2023/12/19 02:35:30;;;;;;;13.00;8.47;;;5.70;99.90;;;;;;5072933;28;20489;-80
2023/12/19 02:37:57;;;;;;;11.73;8.87;;;5.70;99.90;;;;;;5070500;28;20442;-82
2023/12/19 02:40:26;;;;;;;12.90;9.00;;;5.70;99.90;;;;;;5070065;28;20514;-81
2023/12/19 02:42:53;;;;;;;16.27;10.87;;;5.70;99.90;;;;;;5073219;28;20550;-80
2023/12/19 02:45:20;;;;;;;11.73;8.63;;;5.70;99.90;;;;;;5072424;28;20499;-82
2023/12/19 02:47:47;;;;;;;13.00;8.50;;;5.70;99.90;;;;;;5070386;28;20485;-81
2023/12/19 02:50:13;;;;;;;13.33;9.57;;;5.80;99.90;;;;;;5070255;28;20510;-81
2023/12/19 02:52:40;;;;;;;13.33;9.43;;;5.80;99.90;;;;;;5067462;28;20462;-81
2023/12/19 02:55:08;;;;;;;14.30;10.50;;;5.80;99.90;;;;;;5067796;28;20463;-82
2023/12/19 02:57:38;;;;;;;12.27;8.70;;;5.80;99.90;;;;;;5068667;28;20454;-82
2023/12/19 03:00:07;;;;;;;10.07;8.00;;;5.80;99.90;;;;;;5068135;28;20514;-81
2023/12/19 03:02:34;;;;;;;11.20;9.10;;;5.90;99.90;;;;;;5065371;28;20559;-81
2023/12/19 03:05:00;;;;;;;13.37;9.60;;;5.90;99.90;;;;;;5069496;28;20463;-81
2023/12/19 03:07:28;;;;;;;12.03;8.00;;;5.90;99.90;;;;;;5068789;28;20467;-80
2023/12/19 03:09:54;;;;;;;13.33;9.50;;;5.90;99.90;;;;;;5067311;28;20469;-81
2023/12/19 03:12:21;;;;;;;12.37;10.03;;;6.00;99.90;;;;;;5067830;28;20489;-82
2023/12/19 03:14:49;;;;;;;12.00;9.50;;;6.00;99.90;;;;;;5068764;28;20513;-81
2023/12/19 03:17:17;;;;;;;14.10;8.87;;;6.00;99.90;;;;;;5065073;28;20454;-81
2023/12/19 03:19:45;;;;;;;13.03;8.77;;;6.00;99.90;;;;;;5065795;28;20506;-80
2023/12/19 03:22:11;;;;;;;11.70;9.20;;;6.00;99.90;;;;;;5068674;28;20967;-79
2023/12/19 03:24:38;;;;;;;14.10;10.40;;;6.10;99.90;;;;;;5062268;28;20452;-81
2023/12/19 03:27:05;;;;;;;14.60;10.33;;;6.00;99.90;;;;;;5061661;28;20479;-81
2023/12/19 03:29:32;;;;;;;14.20;9.17;;;6.00;99.90;;;;;;5061477;28;20478;-81
2023/12/19 03:32:01;;;;;;;16.83;11.63;;;6.10;99.90;;;;;;5060793;28;20462;-81
2023/12/19 03:34:28;;;;;;;15.50;11.60;;;6.10;99.90;;;;;;5060598;28;20463;-80
2023/12/19 03:36:56;;;;;;;22.90;14.30;;;6.20;99.90;;;;;;5053966;28;20461;-80
2023/12/19 03:39:23;;;;;;;21.90;13.57;;;6.10;99.90;;;;;;5059954;28;20491;-81
2023/12/19 03:41:50;;;;;;;19.60;14.60;;;6.10;99.90;;;;;;5060093;28;20455;-80
2023/12/19 03:44:17;;;;;;;22.87;12.93;;;6.20;99.90;;;;;;5061495;28;20456;-81
2023/12/19 03:46:44;;;;;;;20.70;13.50;;;6.20;99.90;;;;;;5062061;28;20527;-80
2023/12/19 03:49:12;;;;;;;28.43;14.30;;;6.20;99.90;;;;;;5061017;28;20544;-81
2023/12/19 03:51:39;;;;;;;21.20;14.67;;;6.10;99.90;;;;;;5062054;28;20510;-81
2023/12/19 03:54:06;;;;;;;22.40;13.00;;;6.10;99.90;;;;;;5061974;28;20494;-79
2023/12/19 03:56:33;;;;;;;22.70;15.67;;;6.10;99.90;;;;;;5061313;28;20450;-81
2023/12/19 03:58:59;;;;;;;19.67;14.30;;;6.10;99.90;;;;;;5061124;28;20518;-81
2023/12/19 04:01:26;;;;;;;21.10;13.13;;;6.20;99.90;;;;;;5060584;28;20486;-81
2023/12/19 04:03:53;;;;;;;22.20;14.73;;;6.20;99.90;;;;;;5064285;28;20553;-81
2023/12/19 04:06:21;;;;;;;22.63;14.53;;;6.20;99.90;;;;;;5064538;28;20463;-79
2023/12/19 04:08:48;;;;;;;25.23;15.23;;;6.20;99.90;;;;;;5064364;28;20583;-78
2023/12/19 04:11:15;;;;;;;23.80;14.07;;;6.20;99.90;;;;;;5065646;28;20454;-81
2023/12/19 04:13:42;;;;;;;19.37;13.80;;;6.20;99.90;;;;;;5065390;28;20480;-80
2023/12/19 04:16:09;;;;;;;19.27;13.47;;;6.20;99.90;;;;;;5066159;28;20527;-80
2023/12/19 04:18:36;;;;;;;19.90;12.37;;;6.20;99.90;;;;;;5065684;28;20451;-82
2023/12/19 04:21:06;;;;;;;15.93;11.23;;;6.20;99.90;;;;;;5065477;28;20579;-83
2023/12/19 04:23:35;;;;;;;19.60;12.00;;;6.20;99.90;;;;;;5066692;28;20459;-82
2023/12/19 04:26:02;;;;;;;20.37;12.00;;;6.20;99.90;;;;;;5065443;28;20527;-82
2023/12/19 04:28:29;;;;;;;16.37;11.80;;;6.30;99.90;;;;;;5065933;28;20490;-80
2023/12/19 04:30:55;;;;;;;16.90;11.50;;;6.30;99.90;;;;;;5064381;28;20573;-82
2023/12/19 04:33:22;;;;;;;14.10;10.43;;;6.20;99.90;;;;;;5065698;28;20566;-82
2023/12/19 04:35:49;;;;;;;17.90;11.00;;;6.30;99.90;;;;;;5065634;28;20502;-82
2023/12/19 04:38:16;;;;;;;13.83;10.27;;;6.30;99.90;;;;;;5066446;28;20471;-80
2023/12/19 04:40:44;;;;;;;15.73;10.57;;;6.30;99.90;;;;;;5066089;28;20518;-81
2023/12/19 04:43:11;;;;;;;15.60;10.00;;;6.30;99.90;;;;;;5065612;28;20527;-82
2023/12/19 04:45:38;;;;;;;13.00;9.93;;;6.30;99.90;;;;;;5066516;28;20586;-82
2023/12/19 04:48:05;;;;;;;13.03;9.27;;;6.40;99.90;;;;;;5065949;28;20559;-82
2023/12/19 04:50:32;;;;;;;11.77;8.47;;;6.30;99.90;;;;;;5064770;28;20476;-82
2023/12/19 04:52:59;;;;;;;13.73;9.50;;;6.40;99.90;;;;;;5062270;28;20550;-80
2023/12/19 04:55:26;;;;;;;14.87;9.80;;;6.40;99.90;;;;;;5064495;28;20528;-81
2023/12/19 04:57:54;;;;;;;12.00;8.60;;;6.40;99.90;;;;;;5066393;28;20522;-82
2023/12/19 05:00:21;;;;;;;12.10;8.10;;;6.40;99.90;;;;;;5066179;28;20519;-82
2023/12/19 05:02:48;;;;;;;11.70;8.40;;;6.40;99.90;;;;;;5065503;28;20451;-82
2023/12/19 05:05:15;;;;;;;10.50;8.63;;;6.50;99.90;;;;;;5065204;28;20458;-82
2023/12/19 05:07:42;;;;;;;16.20;8.43;;;6.50;99.90;;;;;;5065223;28;20519;-82
2023/12/19 05:10:18;;;;;;;10.83;8.07;;;6.50;99.90;;;;;;5066055;28;20554;-81
2023/12/19 05:12:45;;;;;;;7.83;7.03;;;6.50;99.90;;;;;;5066396;28;20477;-82
2023/12/19 05:15:13;;;;;;;11.33;7.83;;;6.50;99.90;;;;;;5065607;28;20571;-83
2023/12/19 05:17:40;;;;;;;11.73;8.30;;;6.50;99.90;;;;;;5067134;28;20476;-83
2023/12/19 05:20:51;;;;;;;10.80;7.47;;;6.50;99.90;;;;;;5065442;28;20563;-83
2023/12/19 05:23:18;;;;;;;8.30;6.47;;;6.60;99.90;;;;;;5067248;28;20468;-83
2023/12/19 05:25:44;;;;;;;8.93;6.50;;;6.50;99.90;;;;;;5064423;28;20475;-82
2023/12/19 05:28:11;;;;;;;11.50;7.30;;;6.60;99.90;;;;;;5063304;28;20539;-82
2023/12/19 05:30:41;;;;;;;9.53;7.13;;;6.50;99.90;;;;;;5064477;28;20547;-81
2023/12/19 05:33:29;;;;;;;10.20;7.37;;;6.60;99.90;;;;;;5064203;28;20467;-81
2023/12/19 05:35:56;;;;;;;10.60;7.40;;;6.50;99.90;;;;;;5061038;28;20466;-80
2023/12/19 05:38:23;;;;;;;8.20;5.97;;;6.60;99.90;;;;;;5061070;28;20527;-80
2023/12/19 05:40:56;;;;;;;12.20;7.03;;;6.60;99.90;;;;;;5064649;28;20488;-80
2023/12/19 05:43:23;;;;;;;9.93;6.70;;;6.60;99.90;;;;;;5061717;28;20464;-79
2023/12/19 05:45:52;;;;;;;8.73;6.80;;;6.60;99.90;;;;;;5064494;28;20483;-80
2023/12/19 05:48:20;;;;;;;9.03;7.20;;;6.50;99.90;;;;;;5061820;28;20465;-80
2023/12/19 05:50:47;;;;;;;9.10;7.27;;;6.30;99.90;;;;;;5059394;28;20479;-82
2023/12/19 05:53:14;;;;;;;10.97;8.60;;;6.30;99.90;;;;;;5059284;28;20466;-83
2023/12/19 05:55:41;;;;;;;8.27;6.87;;;6.50;99.90;;;;;;5060138;28;20523;-80
2023/12/19 05:58:08;;;;;;;8.70;7.20;;;6.60;99.90;;;;;;5064103;28;20468;-79
2023/12/19 06:00:40;;;;;;;9.03;7.33;;;6.60;99.90;;;;;;5067019;28;20499;-79
2023/12/19 06:03:18;;;;;;;9.30;6.90;;;6.70;99.90;;;;;;5063657;28;20459;-79
2023/12/19 06:05:44;;;;;;;9.30;7.33;;;6.70;99.90;;;;;;5065528;28;20454;-79
2023/12/19 06:08:11;;;;;;;8.83;7.80;;;6.70;99.90;;;;;;5069305;28;20535;-79
2023/12/19 06:11:03;;;;;;;8.93;7.63;;;6.70;99.90;;;;;;5067004;28;20467;-78
2023/12/19 06:13:30;;;;;;;9.80;7.77;;;6.70;99.90;;;;;;5067297;28;20448;-79
2023/12/19 06:15:58;;;;;;;9.87;8.80;;;6.70;99.90;;;;;;5065832;28;20456;-79
2023/12/19 06:18:26;;;;;;;10.83;8.53;;;6.70;99.90;;;;;;5066338;28;20487;-79
2023/12/19 06:20:53;;;;;;;10.30;8.53;;;6.70;99.90;;;;;;5068388;28;20474;-79
2023/12/19 06:23:20;;;;;;;9.90;7.63;;;6.80;99.90;;;;;;5065529;28;20517;-80
2023/12/19 06:25:48;;;;;;;11.80;8.77;;;6.80;99.90;;;;;;5060645;28;20529;-79
2023/12/19 06:28:16;;;;;;;12.30;10.47;;;6.80;99.90;;;;;;5069289;28;20474;-76
2023/12/19 06:30:44;;;;;;;12.90;10.90;;;6.80;99.90;;;;;;5058551;28;20557;-79
2023/12/19 06:33:10;;;;;;;12.20;9.70;;;6.80;99.90;;;;;;5068419;28;20462;-79
2023/12/19 06:35:44;;;;;;;11.80;9.30;;;6.70;99.90;;;;;;5064945;28;20543;-79
2023/12/19 06:38:11;;;;;;;13.20;10.30;;;6.80;99.90;;;;;;5063433;28;20448;-77
2023/12/19 06:40:38;;;;;;;22.30;16.27;;;6.70;99.90;;;;;;5070118;28;20533;-79
2023/12/19 06:43:10;;;;;;;13.67;10.90;;;6.80;99.90;;;;;;5071356;28;20729;-80
2023/12/19 06:45:37;;;;;;;18.10;12.77;;;6.80;99.90;;;;;;5067059;28;20478;-79
2023/12/19 06:48:04;;;;;;;14.27;12.10;;;6.70;99.90;;;;;;5065223;28;20718;-79
2023/12/19 06:50:31;;;;;;;13.00;10.00;;;6.70;99.90;;;;;;5060378;28;20480;-78
2023/12/19 06:52:59;;;;;;;13.13;10.03;;;6.80;99.90;;;;;;5063223;28;20899;-78
2023/12/19 06:55:30;;;;;;;15.70;11.73;;;6.80;99.90;;;;;;5063991;28;20462;-78
2023/12/19 06:57:57;;;;;;;16.37;11.63;;;6.70;99.90;;;;;;5055608;28;20470;-79
2023/12/19 07:00:24;;;;;;;14.67;10.90;;;6.70;99.90;;;;;;5063651;28;20499;-79
2023/12/19 07:02:53;;;;;;;15.97;10.77;;;6.70;99.90;;;;;;5065036;28;20487;-79
2023/12/19 07:05:20;;;;;;;12.10;10.40;;;6.70;99.90;;;;;;5065058;28;20459;-78
2023/12/19 07:07:51;;;;;;;14.17;11.10;;;6.80;99.90;;;;;;5065258;28;20444;-79
2023/12/19 07:10:19;;;;;;;21.77;11.90;;;6.80;99.90;;;;;;5061422;28;20457;-79
2023/12/19 07:12:46;;;;;;;15.30;11.00;;;6.80;99.90;;;;;;5067307;28;20458;-79
2023/12/19 07:15:15;;;;;;;12.37;9.87;;;6.80;99.90;;;;;;5065478;28;20428;-77
2023/12/19 07:17:42;;;;;;;15.30;11.10;;;6.90;99.90;;;;;;5065089;28;20460;-78
2023/12/19 07:20:10;;;;;;;12.33;9.60;;;7.00;99.90;;;;;;5065640;28;20533;-79
2023/12/19 07:22:37;;;;;;;14.47;10.30;;;6.80;99.90;;;;;;5065324;28;20502;-79
2023/12/19 07:25:05;;;;;;;12.17;10.50;;;6.80;99.90;;;;;;5066946;28;20547;-79
2023/12/19 07:27:34;;;;;;;13.00;8.60;;;6.80;99.90;;;;;;5066771;28;20442;-79
2023/12/19 07:30:01;;;;;;;12.17;9.13;;;6.80;99.90;;;;;;5067669;28;20519;-80
2023/12/19 07:32:28;;;;;;;12.83;8.27;;;6.90;99.90;;;;;;5067948;28;20436;-79
2023/12/19 07:34:55;;;;;;;10.10;8.27;;;6.80;99.90;;;;;;5065727;28;20462;-79
2023/12/19 07:37:22;;;;;;;11.03;8.07;;;6.80;99.90;;;;;;5064324;28;20527;-80
2023/12/19 07:39:49;;;;;;;11.77;8.97;;;6.90;99.90;;;;;;5074788;28;20572;-79
2023/12/19 07:42:15;;;;;;;9.70;8.07;;;7.10;99.90;;;;;;5065135;28;20514;-79
2023/12/19 07:44:44;;;;;;;10.00;8.20;;;6.90;99.90;;;;;;5059673;28;20524;-79
2023/12/19 07:47:11;;;;;;;12.50;8.57;;;6.90;99.90;;;;;;5067202;28;21253;-78
2023/12/19 07:49:38;;;;;;;11.00;8.63;;;6.90;99.90;;;;;;5064451;28;20489;-79
2023/12/19 07:52:05;;;;;;;13.13;9.57;;;6.90;99.90;;;;;;5067908;28;20459;-79
2023/12/19 07:54:32;;;;;;;11.80;9.00;;;6.90;99.90;;;;;;5066915;28;20512;-79
2023/12/19 07:56:59;;;;;;;12.23;9.97;;;6.90;99.90;;;;;;5066205;28;20483;-79
2023/12/19 07:59:27;;;;;;;13.60;9.83;;;7.00;99.90;;;;;;5064066;28;21247;-79
2023/12/19 08:01:55;;;;;;;12.70;9.90;;;7.00;99.90;;;;;;5061765;28;20483;-78
2023/12/19 08:04:22;;;;;;;13.13;9.90;;;6.90;99.90;;;;;;5061254;28;20455;-79
2023/12/19 08:06:49;;;;;;;11.07;9.63;;;6.90;99.90;;;;;;5065118;28;20523;-78
2023/12/19 08:09:16;;;;;;;9.77;8.77;;;7.00;99.90;;;;;;5068299;28;21051;-79
2023/12/19 08:11:43;;;;;;;10.10;8.90;;;7.00;99.90;;;;;;5063405;28;20521;-78
2023/12/19 08:14:10;;;;;;;13.57;10.60;;;7.10;99.90;;;;;;5059910;28;20456;-79
2023/12/19 08:16:37;;;;;;;12.50;11.13;;;7.10;99.90;;;;;;5063510;28;20482;-79
2023/12/19 08:19:08;;;;;;;15.27;10.70;;;7.10;99.90;;;;;;5064606;28;20518;-80
2023/12/19 08:21:35;;;;;;;12.40;10.60;;;7.10;99.90;;;;;;5063701;28;20540;-79
2023/12/19 08:24:03;;;;;;;15.30;11.20;;;7.10;99.90;;;;;;5065131;28;20460;-79
2023/12/19 08:26:29;;;;;;;15.80;11.57;;;7.00;99.90;;;;;;5062334;28;20461;-79
2023/12/19 08:28:56;;;;;;;13.00;11.23;;;7.10;99.90;;;;;;5062795;28;20457;-78
2023/12/19 08:31:23;;;;;;;14.20;10.70;;;7.10;99.90;;;;;;5059446;28;20511;-79
2023/12/19 08:33:50;;;;;;;15.10;11.37;;;7.10;99.90;;;;;;5052786;28;20507;-79
2023/12/19 08:36:18;;;;;;;15.67;13.40;;;7.20;99.90;;;;;;5060203;28;20532;-79
2023/12/19 08:38:45;;;;;;;14.73;12.00;;;7.10;99.90;;;;;;5063605;28;20488;-78
2023/12/19 08:41:12;;;;;;;13.13;11.00;;;7.20;99.90;;;;;;5062463;28;20491;-81
2023/12/19 08:43:39;;;;;;;13.83;11.07;;;7.30;99.90;;;;;;5065070;28;20459;-79
2023/12/19 08:46:06;;;;;;;13.37;10.77;;;7.40;99.90;;;;;;5064686;28;20460;-78
2023/12/19 08:48:39;;;;;;;13.30;10.70;;;7.30;99.90;;;;;;5063212;28;20536;-79
2023/12/19 08:51:06;;;;;;;11.20;9.70;;;7.30;99.90;;;;;;5057645;28;20445;-81
2023/12/19 08:53:34;;;;;;;14.50;11.30;;;7.40;99.90;;;;;;5062419;28;20480;-82
2023/12/19 08:56:01;;;;;;;11.37;9.90;;;7.40;99.90;;;;;;5065884;28;20447;-81
2023/12/19 08:58:28;;;;;;;13.45;11.05;;;7.40;99.90;;;;;;5060714;28;20436;-79
2023/12/19 09:00:56;;;;;;;13.43;11.40;;;7.50;99.90;;;;;;5060427;28;20263;-78
2023/12/19 09:03:23;;;;;;;13.50;10.10;;;7.60;99.90;;;;;;5059136;28;20491;-78
2023/12/19 09:05:50;;;;;;;10.53;8.80;;;7.50;99.90;;;;;;5060841;28;20468;-78
2023/12/19 09:08:16;;;;;;;11.80;9.33;;;7.50;99.90;;;;;;5060976;28;20483;-78
2023/12/19 09:10:45;;;;;;;11.10;9.70;;;7.60;99.90;;;;;;5058311;28;20558;-78
2023/12/19 09:13:12;;;;;;;13.50;9.93;;;7.70;99.90;;;;;;5059732;28;20457;-79
2023/12/19 09:15:39;;;;;;;13.33;10.10;;;7.70;99.90;;;;;;5059104;28;20459;-79
2023/12/19 09:18:15;;;;;;;12.63;10.13;;;7.70;99.90;;;;;;5065192;28;20480;-78
2023/12/19 09:20:41;;;;;;;11.53;9.80;;;7.60;99.90;;;;;;5055874;28;20507;-79
2023/12/19 09:23:08;;;;;;;12.73;10.30;;;7.50;99.90;;;;;;5060299;28;20492;-78
2023/12/19 09:25:35;;;;;;;16.13;10.80;;;7.50;99.90;;;;;;5057694;28;20491;-79
2023/12/19 09:28:04;;;;;;;12.80;11.30;;;7.60;99.90;;;;;;5062062;28;20543;-79
2023/12/19 09:30:30;;;;;;;13.70;11.20;;;7.70;99.90;;;;;;5062485;28;20460;-80
2023/12/19 09:35:38;;;;;;;12.37;8.87;;;7.60;99.90;;;;;;5053711;28;20452;-80
2023/12/19 09:38:05;;;;;;;12.50;11.20;;;7.70;99.90;;;;;;5062798;28;20452;-80
2023/12/19 09:40:33;;;;;;;10.77;8.83;;;7.70;99.90;;;;;;5064072;28;20531;-82
2023/12/19 09:43:00;;;;;;;11.10;9.37;;;7.70;99.90;;;;;;5061728;28;20519;-79
2023/12/19 09:45:29;;;;;;;10.47;9.13;;;7.70;99.90;;;;;;5061583;28;20476;-80
2023/12/19 09:48:00;;;;;;;9.17;8.27;;;7.60;99.90;;;;;;5060179;28;20479;-79
2023/12/19 09:50:28;;;;;;;12.67;9.27;;;7.60;99.90;;;;;;5059411;28;20475;-79
2023/12/19 09:52:57;;;;;;;10.80;8.50;;;7.60;99.90;;;;;;5058996;28;20440;-79
2023/12/19 09:55:25;;;;;;;11.67;9.43;;;7.60;99.90;;;;;;5060936;28;20512;-79
2023/12/19 09:57:54;;;;;;;9.90;8.27;;;7.50;99.90;;;;;;5059372;28;20479;-78
2023/12/19 10:00:25;;;;;;;14.03;8.50;;;7.50;99.90;;;;;;5062799;28;20481;-79
2023/12/19 10:02:54;;;;;;;10.10;9.10;;;7.50;99.90;;;;;;5055906;28;20478;-78
2023/12/19 10:05:21;;;;;;;14.13;10.00;;;7.50;99.90;;;;;;5061973;28;20456;-78
2023/12/19 10:07:48;;;;;;;11.97;9.17;;;7.50;99.90;;;;;;5061495;28;20532;-78
2023/12/19 10:10:15;;;;;;;11.53;9.03;;;7.50;99.90;;;;;;5063728;28;20472;-79
2023/12/19 10:12:51;;;;;;;10.40;8.50;;;7.60;99.90;;;;;;5063172;28;20517;-79
2023/12/19 10:15:18;;;;;;;12.33;9.43;;;7.60;99.90;;;;;;5065713;28;20463;-79
2023/12/19 10:18:08;;;;;;;10.70;7.97;;;7.60;99.90;;;;;;5065371;28;20483;-78
2023/12/19 10:20:37;;;;;;;10.40;8.90;;;7.50;99.90;;;;;;5064148;28;20484;-79
2023/12/19 10:23:04;;;;;;;9.50;8.40;;;7.50;99.90;;;;;;5063908;28;20466;-81
2023/12/19 10:25:32;;;;;;;9.30;8.00;;;7.50;99.90;;;;;;5063664;28;20475;-80
2023/12/19 10:28:08;;;;;;;8.80;7.90;;;7.50;99.90;;;;;;5059384;28;20449;-80
2023/12/19 10:30:35;;;;;;;9.33;8.10;;;7.50;99.90;;;;;;5063210;28;20572;-80
2023/12/19 10:33:02;;;;;;;9.90;7.87;;;7.60;99.90;;;;;;5063889;28;20483;-79
2023/12/19 10:35:38;;;;;;;13.87;9.83;;;7.60;99.90;;;;;;5064322;28;20448;-79
2023/12/19 10:38:05;;;;;;;7.57;6.83;;;7.60;99.90;;;;;;5063862;28;20535;-79
2023/12/19 10:40:32;;;;;;;9.13;7.20;;;7.70;99.90;;;;;;5062131;28;20478;-79
2023/12/19 10:43:00;;;;;;;7.33;6.57;;;7.70;99.90;;;;;;5065026;28;20508;-79
2023/12/19 10:45:28;;;;;;;8.70;7.57;;;7.70;99.90;;;;;;5067258;28;20471;-79
2023/12/19 10:47:54;;;;;;;7.70;6.93;;;7.70;99.90;;;;;;5063472;28;20691;-79
2023/12/19 10:50:22;;;;;;;9.63;8.00;;;7.70;99.90;;;;;;5065661;28;20530;-80
2023/12/19 10:52:52;;;;;;;7.03;6.20;;;7.70;99.90;;;;;;5062361;28;20531;-80
2023/12/19 10:55:21;;;;;;;8.00;6.00;;;7.60;99.90;;;;;;5066282;28;20514;-79
2023/12/19 10:57:49;;;;;;;10.70;6.87;;;7.60;99.90;;;;;;5065831;28;20455;-80
2023/12/19 11:00:21;;;;;;;8.37;7.07;;;7.60;99.90;;;;;;5063385;28;20546;-80
2023/12/19 11:02:58;;;;;;;8.90;5.90;;;7.60;99.90;;;;;;5065472;28;20489;-79
2023/12/19 11:05:30;;;;;;;6.77;5.67;;;7.60;99.90;;;;;;5063759;28;20463;-79
2023/12/19 11:08:03;;;;;;;7.23;5.50;;;7.70;99.90;;;;;;5062603;28;20477;-79
2023/12/19 11:10:34;;;;;;;7.40;5.57;;;7.70;99.90;;;;;;5061618;28;20967;-78
2023/12/19 11:13:02;;;;;;;5.70;5.10;;;7.80;99.90;;;;;;5063446;28;20469;-79
2023/12/19 11:15:29;;;;;;;5.10;4.53;;;7.80;99.90;;;;;;5063669;28;20480;-79
2023/12/19 11:17:59;;;;;;;5.17;4.67;;;7.70;99.90;;;;;;5061069;28;20449;-81
2023/12/19 11:20:34;;;;;;;5.57;4.50;;;7.70;99.90;;;;;;5061854;28;20469;-79
2023/12/19 11:23:18;;;;;;;4.83;4.27;;;7.60;99.90;;;;;;5059701;28;20535;-78
2023/12/19 11:25:50;;;;;;;4.30;3.30;;;7.70;99.90;;;;;;5057283;28;20475;-79
2023/12/19 11:28:17;;;;;;;9.40;4.47;;;7.60;99.90;;;;;;5061279;28;20521;-79
2023/12/19 11:30:44;;;;;;;4.93;4.43;;;7.70;99.90;;;;;;5061085;28;20506;-79
2023/12/19 11:33:13;;;;;;;4.30;3.90;;;7.60;99.90;;;;;;5062756;28;20480;-79
2023/12/19 11:35:42;;;;;;;4.10;3.70;;;7.70;99.90;;;;;;5067128;28;20493;-77
2023/12/19 11:38:29;;;;;;;4.27;3.33;;;7.70;99.90;;;;;;5063887;28;20461;-77
2023/12/19 11:40:59;;;;;;;3.53;3.20;;;7.80;99.90;;;;;;5062334;28;20474;-78
2023/12/19 11:43:55;;;;;;;3.60;3.00;;;7.80;99.90;;;;;;5060892;28;20484;-77
2023/12/19 11:46:26;;;;;;;3.57;3.07;;;7.80;99.90;;;;;;5061971;28;20441;-79
2023/12/19 11:48:55;;;;;;;3.00;2.63;;;7.80;99.90;;;;;;5062307;28;20448;-79
2023/12/19 11:51:50;;;;;;;2.50;2.30;;;7.90;99.90;;;;;;5063426;28;20458;-79
2023/12/19 11:54:18;;;;;;;3.73;3.20;;;7.90;99.90;;;;;;5063312;28;21231;-78
2023/12/19 11:56:48;;;;;;;3.93;2.60;;;7.90;99.90;;;;;;5062796;28;20457;-78
2023/12/19 11:59:15;;;;;;;4.40;2.97;;;7.90;99.90;;;;;;5061215;28;20456;-78
2023/12/19 12:01:44;;;;;;;4.40;3.60;;;7.90;99.90;;;;;;5065026;28;20426;-80
2023/12/19 12:04:11;;;;;;;3.50;2.80;;;7.90;99.90;;;;;;5062756;28;20462;-78
2023/12/19 12:06:38;;;;;;;4.20;3.80;;;7.90;99.90;;;;;;5065755;28;20528;-77
2023/12/19 12:09:09;;;;;;;3.70;3.13;;;7.90;99.90;;;;;;5065655;28;20532;-80
2023/12/19 12:11:51;;;;;;;3.80;3.00;;;7.80;99.90;;;;;;5064055;28;20460;-79
2023/12/19 12:14:17;;;;;;;3.77;3.47;;;7.90;99.90;;;;;;5064049;28;20440;-78
2023/12/19 12:16:44;;;;;;;3.90;3.20;;;7.90;99.90;;;;;;5062782;28;20509;-79
2023/12/19 12:19:12;;;;;;;3.43;2.80;;;7.90;99.90;;;;;;5063437;28;20497;-79
2023/12/19 12:21:46;;;;;;;3.40;2.97;;;7.90;99.90;;;;;;5068310;28;20516;-80
2023/12/19 12:24:22;;;;;;;3.13;2.57;;;7.90;99.90;;;;;;5069136;28;20489;-80
2023/12/19 12:26:54;;;;;;;3.47;3.17;;;7.80;99.90;;;;;;5069587;28;20476;-80
2023/12/19 12:29:21;;;;;;;3.43;3.00;;;7.70;99.90;;;;;;5067803;28;20477;-79
2023/12/19 12:31:50;;;;;;;5.80;3.37;;;7.80;99.90;;;;;;5062642;28;20915;-79
2023/12/19 12:34:16;;;;;;;5.43;4.10;;;7.80;99.90;;;;;;5063391;28;20517;-80
2023/12/19 12:36:49;;;;;;;4.70;3.60;;;7.70;99.90;;;;;;5059786;28;20490;-78
2023/12/19 12:39:20;;;;;;;4.10;3.20;;;7.80;99.90;;;;;;5062345;28;20486;-79
2023/12/19 12:41:47;;;;;;;4.30;3.90;;;7.80;99.90;;;;;;5063025;28;20468;-79
2023/12/19 12:44:19;;;;;;;4.63;4.20;;;7.80;99.90;;;;;;5063028;28;20527;-79
2023/12/19 12:46:47;;;;;;;5.47;3.43;;;7.80;99.90;;;;;;5062668;28;20476;-79
2023/12/19 12:49:18;;;;;;;6.17;4.20;;;7.70;99.90;;;;;;5062858;28;20468;-77
2023/12/19 12:51:46;;;;;;;7.77;4.10;;;7.60;99.90;;;;;;5062892;28;20464;-78
2023/12/19 12:54:17;;;;;;;6.57;4.80;;;7.70;99.90;;;;;;5062459;28;20456;-78